Kareela Spirit — C6QJ9 — position and weather

sailwx.info

Track history (hours):
 
Tides and Currents Weather Stations Pressure Air Temp Water Temp Dewpoint Dewpoint Depression Visibility Wind Speed Wind Dir Waves Ship Positions

Kareela Spirit

Last reported at 2017-Dec-01 00:15 UTC. Time now 2018-Jan-20 03:36 UTC.
Position N 01°16' E 104°09'.
Warning: this ship's position is 50 days out of date.

Length 249 m; draft 8.2 m.

Type: Tanker. MMSI: 308731000.

Date/timePositionNaut miles runAvg speedWind from/ knotsBaromVisibWave heightAir tempDewpointWater temp
2017-Dec-01 00:15N 01°16' E 104°09'2 7.1
2017-Dec-01 00:00N 01°16' E 104°08'4 6.9
2017-Nov-30 23:27N 01°15' E 104°04'3 6.8
2017-Nov-30 22:59N 01°15' E 104°01'3 6.5
2017-Nov-30 22:29N 01°14' E 103°57'2 4.9
2017-Nov-30 21:59N 01°15' E 103°55'1 1.4
2017-Nov-30 21:26N 01°15' E 103°54'0 0.0
2017-Nov-30 20:56N 01°15' E 103°54'0 0.1
2017-Nov-30 20:14N 01°15' E 103°55'0 0.2
2017-Nov-30 19:50N 01°15' E 103°55'0 0.2
2017-Nov-30 19:26N 01°15' E 103°55'0 0.1
2017-Nov-30 18:56N 01°15' E 103°55'0 0.0
2017-Nov-30 18:29N 01°15' E 103°55'0 0.0
2017-Nov-30 17:56N 01°15' E 103°55'0 0.0
2017-Nov-30 17:29N 01°15' E 103°55'0 0.0
2017-Nov-30 16:59N 01°15' E 103°55'0 0.0
2017-Nov-30 16:26N 01°15' E 103°55'0 0.1
2017-Nov-30 15:58N 01°15' E 103°55'0 0.0
2017-Nov-30 15:25N 01°15' E 103°55'0 0.0
2017-Nov-30 14:37N 01°15' E 103°55'0 0.0
2017-Nov-30 14:07N 01°15' E 103°55'0 0.0
2017-Nov-30 13:58N 01°15' E 103°55'0 0.0
2017-Nov-30 13:25N 01°15' E 103°55'0 0.0
2017-Nov-30 12:58N 01°15' E 103°55'0 0.0
2017-Nov-30 12:28N 01°15' E 103°55'0 0.0
2017-Nov-30 11:49N 01°15' E 103°55'0 0.0
2017-Nov-30 11:25N 01°15' E 103°55'0 0.1
2017-Nov-30 10:55N 01°15' E 103°55'0 0.0
2017-Nov-30 10:25N 01°15' E 103°55'0 0.0
2017-Nov-30 09:55N 01°15' E 103°55'0 0.1
2017-Nov-30 09:22N 01°15' E 103°55'0 0.1
2017-Nov-30 08:55N 01°15' E 103°55'0 0.1
2017-Nov-30 08:25N 01°15' E 103°55'0 0.1
2017-Nov-30 07:58N 01°15' E 103°55'0 0.0
2017-Nov-30 07:28N 01°15' E 103°55'0 0.0
2017-Nov-30 06:58N 01°15' E 103°55'0 0.0
2017-Nov-30 06:25N 01°15' E 103°55'0 0.0
2017-Nov-30 05:37N 01°15' E 103°55'0 0.1
2017-Nov-30 05:28N 01°15' E 103°55'0 0.0
2017-Nov-30 04:55N 01°15' E 103°55'0 0.0
2017-Nov-30 04:28N 01°15' E 103°55'0 0.0
2017-Nov-30 03:58N 01°15' E 103°55'0 0.0
2017-Nov-30 03:19N 01°15' E 103°55'0 0.1
2017-Nov-30 02:55N 01°15' E 103°55'0 0.0
2017-Nov-30 02:22N 01°15' E 103°55'0 0.0
2017-Nov-30 01:52N 01°15' E 103°55'0 0.0
2017-Nov-30 01:25N 01°15' E 103°55'0 0.1
2017-Nov-30 00:55N 01°15' E 103°55'0 0.1
2017-Nov-30 00:19N 01°15' E 103°55'0 0.1
2017-Nov-29 23:58N 01°15' E 103°55'0 0.1
2017-Nov-29 23:19N 01°15' E 103°55'0 0.2
2017-Nov-29 22:55N 01°15' E 103°55'0 0.0
2017-Nov-29 22:25N 01°15' E 103°55'0 0.0
2017-Nov-29 21:58N 01°15' E 103°55'0 0.0
2017-Nov-29 21:25N 01°15' E 103°55'0 0.0
2017-Nov-29 20:55N 01°15' E 103°55'0 0.1
2017-Nov-29 20:28N 01°15' E 103°55'0 0.0
2017-Nov-29 19:55N 01°15' E 103°55'0 0.1
2017-Nov-29 19:25N 01°15' E 103°55'0 0.0
2017-Nov-29 18:55N 01°15' E 103°55'0 0.1
2017-Nov-29 18:25N 01°15' E 103°55'0 0.0
2017-Nov-29 17:49N 01°15' E 103°55'0 0.0
2017-Nov-29 17:28N 01°15' E 103°55'0 0.0
2017-Nov-29 16:40N 01°15' E 103°55'0 0.3
2017-Nov-29 16:28N 01°15' E 103°55'0 0.0
2017-Nov-29 15:55N 01°15' E 103°55'0 0.0
2017-Nov-29 15:25N 01°15' E 103°55'0 0.0
2017-Nov-29 14:55N 01°15' E 103°55'0 0.1
2017-Nov-29 14:25N 01°15' E 103°55'0 0.0
2017-Nov-29 13:55N 01°15' E 103°55'0 0.0
2017-Nov-29 13:25N 01°15' E 103°55'0 0.0
2017-Nov-29 12:55N 01°15' E 103°55'0 0.0
2017-Nov-29 12:27N 01°15' E 103°55'0 0.0
2017-Nov-29 12:00N 01°15' E 103°55'0 0.0
2017-Nov-29 11:31N 01°15' E 103°55'0 0.0
2017-Nov-29 11:00N 01°15' E 103°55'0 0.0
2017-Nov-29 10:30N 01°15' E 103°55'0 0.0
2017-Nov-29 10:00N 01°15' E 103°55'0 0.0
2017-Nov-29 09:18N 01°15' E 103°55'0 0.0
2017-Nov-29 09:00N 01°15' E 103°55'0 0.0
2017-Nov-29 08:27N 01°15' E 103°55'0 0.0
2017-Nov-29 08:00N 01°15' E 103°55'0 0.1
2017-Nov-29 07:27N 01°15' E 103°55'0 0.1
2017-Nov-29 06:54N 01°15' E 103°55'0 0.0
2017-Nov-29 06:27N 01°15' E 103°55'0 0.1
2017-Nov-29 05:57N 01°15' E 103°55'0 0.2
2017-Nov-29 05:30N 01°15' E 103°55'0 0.1
2017-Nov-29 04:57N 01°15' E 103°55'0 0.1
2017-Nov-29 04:30N 01°15' E 103°55'0 0.0
2017-Nov-29 03:51N 01°15' E 103°55'0 0.0
2017-Nov-29 03:18N 01°15' E 103°55'0 0.0
2017-Nov-29 03:00N 01°15' E 103°55'0 0.0
2017-Nov-29 02:30N 01°15' E 103°55'0 0.2
2017-Nov-29 02:00N 01°15' E 103°55'0 0.1
2017-Nov-29 01:03N 01°15' E 103°55'0 0.0
2017-Nov-29 01:00N 01°15' E 103°55'0 0.1
2017-Nov-29 00:24N 01°15' E 103°54'0 0.0
2017-Nov-29 00:00N 01°15' E 103°54'0 0.0
2017-Nov-28 23:30N 01°15' E 103°54'0 0.0
2017-Nov-28 23:00N 01°15' E 103°54'0 0.0
2017-Nov-28 22:30N 01°15' E 103°54'0 0.0
2017-Nov-28 22:00N 01°15' E 103°54'0 0.0
2017-Nov-28 21:30N 01°15' E 103°54'0 0.0
2017-Nov-28 20:52N 01°15' E 103°54'0 0.0
2017-Nov-28 20:28N 01°15' E 103°54'0 0.1
2017-Nov-28 19:58N 01°15' E 103°55'0 0.1
2017-Nov-28 19:28N 01°15' E 103°55'0 0.1
2017-Nov-28 18:55N 01°15' E 103°55'0 0.1
2017-Nov-28 18:25N 01°15' E 103°55'0 0.0
2017-Nov-28 17:58N 01°15' E 103°55'0 0.0
2017-Nov-28 17:28N 01°15' E 103°55'0 0.1
2017-Nov-28 16:55N 01°15' E 103°55'0 0.0
2017-Nov-28 16:25N 01°15' E 103°55'0 0.0
2017-Nov-28 15:55N 01°15' E 103°55'0 0.0
2017-Nov-28 14:58N 01°15' E 103°55'0 0.0
2017-Nov-28 14:16N 01°15' E 103°55'0 0.0
2017-Nov-28 13:55N 01°15' E 103°55'0 0.0
2017-Nov-28 13:25N 01°15' E 103°55'0 0.1
2017-Nov-28 12:55N 01°15' E 103°55'0 0.0
2017-Nov-28 12:22N 01°15' E 103°55'0 0.1
2017-Nov-28 11:55N 01°15' E 103°55'0 0.2
2017-Nov-28 11:28N 01°15' E 103°55'0 0.1
2017-Nov-28 10:59N 01°15' E 103°55'0 0.2
2017-Nov-28 10:16N 01°15' E 103°55'0 0.2
2017-Nov-28 09:55N 01°15' E 103°55'0 0.1
2017-Nov-28 09:28N 01°15' E 103°54'0 0.0
2017-Nov-28 08:44N 01°15' E 103°54'0 0.0
2017-Nov-28 08:28N 01°15' E 103°54'0 0.0
2017-Nov-28 07:58N 01°15' E 103°54'0 0.1
2017-Nov-28 07:28N 01°15' E 103°54'0 0.0
2017-Nov-28 06:10N 01°15' E 103°54'0 0.1
2017-Nov-28 05:55N 01°15' E 103°54'0 0.0
2017-Nov-28 05:10N 01°15' E 103°54'0 0.1
2017-Nov-28 04:31N 01°15' E 103°54'0 0.1
2017-Nov-28 03:21N 01°15' E 103°54'0 0.0
2017-Nov-28 03:00N 01°15' E 103°54'0 0.0
2017-Nov-28 00:54N 01°15' E 103°54'0 0.0
2017-Nov-28 00:24N 01°15' E 103°54'0 0.0
2017-Nov-27 23:54N 01°15' E 103°54'0 0.0
2017-Nov-27 23:15N 01°15' E 103°54'0 0.0
2017-Nov-27 22:01N 01°15' E 103°54'0 0.0
2017-Nov-27 21:51N 01°15' E 103°54'0 0.0
2017-Nov-27 21:18N 01°15' E 103°54'0 0.0
2017-Nov-27 19:54N 01°15' E 103°54'0 0.0
2017-Nov-27 19:30N 01°15' E 103°54'0 0.1
2017-Nov-27 18:51N 01°15' E 103°55'0 0.0
2017-Nov-27 18:30N 01°15' E 103°55'0 0.1
2017-Nov-27 18:00N 01°15' E 103°55'0 0.0
2017-Nov-27 17:24N 01°15' E 103°55'0 0.0
2017-Nov-27 16:57N 01°15' E 103°55'0 0.0
2017-Nov-27 16:30N 01°15' E 103°55'0 0.0
2017-Nov-27 16:00N 01°15' E 103°55'0 0.0
2017-Nov-27 15:24N 01°15' E 103°55'0 0.0
2017-Nov-27 14:48N 01°15' E 103°55'0 0.0
2017-Nov-27 14:30N 01°15' E 103°55'0 0.0
2017-Nov-27 13:54N 01°15' E 103°55'0 0.0
2017-Nov-27 13:24N 01°15' E 103°55'0 0.0
2017-Nov-27 13:00N 01°15' E 103°55'0 0.0
2017-Nov-27 12:30N 01°15' E 103°55'0 0.0
2017-Nov-27 12:00N 01°15' E 103°55'0 0.0
2017-Nov-27 11:30N 01°15' E 103°55'0 0.0
2017-Nov-27 11:00N 01°15' E 103°55'0 0.0
2017-Nov-27 10:24N 01°15' E 103°55'0 0.1
2017-Nov-27 09:57N 01°15' E 103°55'0 0.1
2017-Nov-27 09:30N 01°15' E 103°55'0 0.1
2017-Nov-27 09:00N 01°15' E 103°54'0 0.0
2017-Nov-27 08:24N 01°15' E 103°54'0 0.0
2017-Nov-27 07:52N 01°15' E 103°54'0 0.2
2017-Nov-27 07:28N 01°15' E 103°54'0 0.0
2017-Nov-27 05:36N 01°15' E 103°54'0 0.0
2017-Nov-27 03:30N 01°15' E 103°54'0 0.0
2017-Nov-27 01:33N 01°15' E 103°54'0 0.1
2017-Nov-27 01:27N 01°15' E 103°54'0 0.0
2017-Nov-27 00:51N 01°15' E 103°54'0 0.0
2017-Nov-26 23:50N 01°15' E 103°54'0 0.0
2017-Nov-26 23:26N 01°15' E 103°54'0 0.0
2017-Nov-26 20:59N 01°15' E 103°54'0 0.0
2017-Nov-26 20:29N 01°15' E 103°54'0 0.1
2017-Nov-26 19:59N 01°15' E 103°55'0 0.0
2017-Nov-26 19:23N 01°15' E 103°55'0 0.2
2017-Nov-26 18:59N 01°15' E 103°55'0 0.0
2017-Nov-26 18:29N 01°15' E 103°55'0 0.1
2017-Nov-26 17:59N 01°15' E 103°55'0 0.0
2017-Nov-26 17:23N 01°15' E 103°55'0 0.2
2017-Nov-26 16:59N 01°15' E 103°55'0 0.1
2017-Nov-26 16:29N 01°15' E 103°55'0 0.0
2017-Nov-26 15:53N 01°15' E 103°55'0 0.0
2017-Nov-26 15:29N 01°15' E 103°55'0 0.1
2017-Nov-26 14:56N 01°15' E 103°55'0 0.1
2017-Nov-26 14:20N 01°15' E 103°55'0 0.2
2017-Nov-26 13:56N 01°15' E 103°55'0 0.0
2017-Nov-26 13:26N 01°15' E 103°55'0 0.0
2017-Nov-26 12:59N 01°15' E 103°55'0 0.1
2017-Nov-26 12:29N 01°15' E 103°55'0 0.0
2017-Nov-26 11:59N 01°15' E 103°55'0 0.0
2017-Nov-26 11:24N 01°15' E 103°55'0 0.1
2017-Nov-26 10:53N 01°15' E 103°55'0 0.1
2017-Nov-26 10:29N 01°15' E 103°55'0 0.0
2017-Nov-26 09:59N 01°15' E 103°55'0 0.0
2017-Nov-26 09:29N 01°15' E 103°55'0 0.2
2017-Nov-26 08:56N 01°15' E 103°55'0 0.3
2017-Nov-26 08:29N 01°15' E 103°54'0 0.0
2017-Nov-26 03:59N 01°15' E 103°54'0 0.0
2017-Nov-26 03:29N 01°15' E 103°54'0 0.0
2017-Nov-26 02:47N 01°15' E 103°54'0 0.0
2017-Nov-26 02:05N 01°15' E 103°54'0 0.0
2017-Nov-26 01:35N 01°15' E 103°54'0 0.0
2017-Nov-26 01:17N 01°15' E 103°54'0 0.0
2017-Nov-26 00:53N 01°15' E 103°54'0 0.0
2017-Nov-26 00:29N 01°15' E 103°54'0 0.0
2017-Nov-25 23:51N 01°15' E 103°54'0 0.0
2017-Nov-25 23:17N 01°15' E 103°54'0 0.0
2017-Nov-25 22:59N 01°15' E 103°54'0 0.0
2017-Nov-25 22:20N 01°15' E 103°54'0 0.0
2017-Nov-25 21:47N 01°15' E 103°54'0 0.0
2017-Nov-25 21:29N 01°15' E 103°54'0 0.1
2017-Nov-25 20:58N 01°15' E 103°54'0 0.0
2017-Nov-25 20:28N 01°15' E 103°54'0 0.0
2017-Nov-25 19:58N 01°15' E 103°54'0 0.1
2017-Nov-25 19:28N 01°15' E 103°55'0 0.1
2017-Nov-25 18:52N 01°15' E 103°54'0 0.1
2017-Nov-25 18:22N 01°15' E 103°55'0 0.0
2017-Nov-25 17:49N 01°15' E 103°55'0 0.2
2017-Nov-25 17:28N 01°15' E 103°55'0 0.1
2017-Nov-25 16:52N 01°15' E 103°55'0 0.1
2017-Nov-25 16:29N 01°15' E 103°55'0 0.1
2017-Nov-25 15:58N 01°15' E 103°55'0 0.0
2017-Nov-25 15:28N 01°15' E 103°55'0 0.0
2017-Nov-25 14:52N 01°15' E 103°55'0 0.0
2017-Nov-25 14:28N 01°15' E 103°55'0 0.1
2017-Nov-25 13:58N 01°15' E 103°55'0 0.1
2017-Nov-25 13:28N 01°15' E 103°55'0 0.0
2017-Nov-25 12:58N 01°15' E 103°55'0 0.0
2017-Nov-25 12:28N 01°15' E 103°55'0 0.1
2017-Nov-25 11:58N 01°15' E 103°55'0 0.1
2017-Nov-25 11:28N 01°15' E 103°55'0 0.1
2017-Nov-25 10:58N 01°15' E 103°55'0 0.0
2017-Nov-25 10:28N 01°15' E 103°55'0 0.1
2017-Nov-25 09:58N 01°15' E 103°55'0 0.1
2017-Nov-25 09:28N 01°15' E 103°55'0 0.0
2017-Nov-25 08:49N 01°15' E 103°55'0 0.0
2017-Nov-25 08:28N 01°15' E 103°55'0 0.0
2017-Nov-25 07:59N 01°15' E 103°55'0 0.4
2017-Nov-25 07:28N 01°15' E 103°54'0 0.1
2017-Nov-25 06:43N 01°15' E 103°54'0 0.0
2017-Nov-25 06:16N 01°15' E 103°54'0 0.0
2017-Nov-25 05:58N 01°15' E 103°54'0 0.0
2017-Nov-25 04:52N 01°15' E 103°54'0 0.0
2017-Nov-25 04:28N 01°15' E 103°54'0 0.0
2017-Nov-25 03:58N 01°15' E 103°54'0 0.0
2017-Nov-25 03:10N 01°15' E 103°54'0 0.0
2017-Nov-25 02:58N 01°15' E 103°54'0 0.0
2017-Nov-25 00:58N 01°15' E 103°54'0 0.0
2017-Nov-25 00:01N 01°15' E 103°54'0 0.0
2017-Nov-24 23:40N 01°15' E 103°54'0 0.0
2017-Nov-24 23:28N 01°15' E 103°54'0 0.0
2017-Nov-24 22:04N 01°15' E 103°54'0 0.0
2017-Nov-24 21:46N 01°15' E 103°54'0 0.0
2017-Nov-24 21:28N 01°15' E 103°54'0 0.0
2017-Nov-24 20:52N 01°15' E 103°54'0 0.0
2017-Nov-24 20:28N 01°15' E 103°54'0 0.0
2017-Nov-24 19:58N 01°15' E 103°54'0 0.1
2017-Nov-24 19:28N 01°15' E 103°54'0 0.0
2017-Nov-24 18:58N 01°15' E 103°54'0 0.0
2017-Nov-24 18:19N 01°15' E 103°54'0 0.0
2017-Nov-24 18:01N 01°15' E 103°54'0 0.0
2017-Nov-24 17:31N 01°15' E 103°54'0 0.1
2017-Nov-24 16:58N 01°15' E 103°55'0 0.1
2017-Nov-24 16:30N 01°15' E 103°54'0 0.1
2017-Nov-24 16:00N 01°15' E 103°55'0 0.1
2017-Nov-24 15:21N 01°15' E 103°55'0 0.2
2017-Nov-24 14:45N 01°15' E 103°55'0 0.1
2017-Nov-24 14:30N 01°15' E 103°55'0 0.0
2017-Nov-24 13:57N 01°15' E 103°55'0 0.0
2017-Nov-24 13:27N 01°15' E 103°55'0 0.0
2017-Nov-24 12:57N 01°15' E 103°55'0 0.0
2017-Nov-24 12:27N 01°15' E 103°55'0 0.0
2017-Nov-24 11:57N 01°15' E 103°55'0 0.0
2017-Nov-24 11:30N 01°15' E 103°55'0 0.0
2017-Nov-24 11:00N 01°15' E 103°55'0 0.0
2017-Nov-24 10:18N 01°15' E 103°55'0 0.0
2017-Nov-24 09:57N 01°15' E 103°55'0 0.0
2017-Nov-24 09:27N 01°15' E 103°55'0 0.2
2017-Nov-24 09:00N 01°15' E 103°55'0 0.1
2017-Nov-24 08:24N 01°15' E 103°55'0 0.1
2017-Nov-24 07:57N 01°15' E 103°55'0 0.1
2017-Nov-24 07:27N 01°15' E 103°55'0 0.1
2017-Nov-24 06:51N 01°15' E 103°55'0 0.1
2017-Nov-24 06:27N 01°15' E 103°54'0 0.0
2017-Nov-24 05:21N 01°15' E 103°54'0 0.1
2017-Nov-24 04:57N 01°15' E 103°54'0 0.0
2017-Nov-24 04:27N 01°15' E 103°54'0 0.0
2017-Nov-24 03:48N 01°15' E 103°54'0 0.0
2017-Nov-24 03:27N 01°15' E 103°54'0 0.0
2017-Nov-24 02:51N 01°15' E 103°54'0 0.1
2017-Nov-24 02:21N 01°15' E 103°54'0 0.0
2017-Nov-24 01:54N 01°15' E 103°54'0 0.1
2017-Nov-24 01:21N 01°15' E 103°54'0 0.1
2017-Nov-24 00:48N 01°15' E 103°54'0 0.2
2017-Nov-24 00:27N 01°15' E 103°54'0 0.0
2017-Nov-23 23:54N 01°15' E 103°54'0 0.0
2017-Nov-23 23:27N 01°15' E 103°54'0 0.1
2017-Nov-23 23:00N 01°15' E 103°54'0 0.0
2017-Nov-23 22:30N 01°15' E 103°54'0 0.0
2017-Nov-23 21:57N 01°15' E 103°54'0 0.0
2017-Nov-23 21:27N 01°15' E 103°54'0 0.0
2017-Nov-23 20:57N 01°15' E 103°54'0 0.1
2017-Nov-23 20:27N 01°15' E 103°55'0 0.0
2017-Nov-23 19:57N 01°15' E 103°55'0 0.0
2017-Nov-23 19:24N 01°15' E 103°55'0 0.0
2017-Nov-23 18:57N 01°15' E 103°55'0 0.0
2017-Nov-23 18:30N 01°15' E 103°55'0 0.0
2017-Nov-23 17:51N 01°15' E 103°55'0 0.0
2017-Nov-23 17:27N 01°15' E 103°55'0 0.0
2017-Nov-23 17:00N 01°15' E 103°55'0 0.1
2017-Nov-23 16:30N 01°15' E 103°54'0 0.2
2017-Nov-23 15:48N 01°15' E 103°55'0 0.1
2017-Nov-23 15:21N 01°15' E 103°55'0 0.1
2017-Nov-23 14:54N 01°15' E 103°55'0 0.1
2017-Nov-23 14:24N 01°15' E 103°55'0 0.0
2017-Nov-23 14:00N 01°15' E 103°55'0 0.0
2017-Nov-23 13:29N 01°15' E 103°55'0 0.0
2017-Nov-23 12:41N 01°15' E 103°55'0 0.1
2017-Nov-23 12:23N 01°15' E 103°55'0 0.0
2017-Nov-23 11:50N 01°15' E 103°55'0 0.0
2017-Nov-23 11:26N 01°15' E 103°55'0 0.0
2017-Nov-23 10:56N 01°15' E 103°55'0 0.0
2017-Nov-23 10:26N 01°15' E 103°55'0 0.0
2017-Nov-23 09:56N 01°15' E 103°55'0 0.0
2017-Nov-23 09:29N 01°15' E 103°55'0 0.1
2017-Nov-23 08:59N 01°15' E 103°55'0 0.1
2017-Nov-23 08:29N 01°15' E 103°55'0 0.0
2017-Nov-23 07:50N 01°15' E 103°55'0 0.0
2017-Nov-23 07:26N 01°15' E 103°55'0 0.3
2017-Nov-23 06:59N 01°15' E 103°55'0 0.4
2017-Nov-23 06:26N 01°15' E 103°54'0 0.1
2017-Nov-23 05:50N 01°15' E 103°54'0 0.2
2017-Nov-23 05:26N 01°15' E 103°54'0 0.0
2017-Nov-23 04:56N 01°15' E 103°54'0 0.0
2017-Nov-23 03:02N 01°15' E 103°54'0 0.0
2017-Nov-23 02:56N 01°15' E 103°54'0 0.0
2017-Nov-23 01:26N 01°15' E 103°54'0 0.0
2017-Nov-23 00:50N 01°15' E 103°54'0 0.0
2017-Nov-23 00:20N 01°15' E 103°54'0 0.0
2017-Nov-22 23:23N 01°15' E 103°54'0 0.0
2017-Nov-22 22:44N 01°15' E 103°54'0 0.0
2017-Nov-22 22:14N 01°15' E 103°54'0 0.0
2017-Nov-22 21:53N 01°15' E 103°54'0 0.0
2017-Nov-22 21:26N 01°15' E 103°54'0 0.1
2017-Nov-22 20:50N 01°15' E 103°54'0 0.0
2017-Nov-22 20:29N 01°15' E 103°54'0 0.1
2017-Nov-22 19:56N 01°15' E 103°55'0 0.1
2017-Nov-22 19:20N 01°15' E 103°54'  
Track history (hours):
 
Tides and Currents Weather Stations Pressure Air Temp Water Temp Dewpoint Dewpoint Depression Visibility Wind Speed Wind Dir Waves Ship Positions

Kareela Spirit

Last reported at 2017-Dec-01 00:15 UTC. Time now 2018-Jan-20 03:36 UTC.
Position N 01°16' E 104°09'.
Warning: this ship's position is 50 days out of date.

Length 249 m; draft 8.2 m.

Type: Tanker. MMSI: 308731000.

Date/timePositionNaut miles runAvg speedWind from/ knotsBaromVisibWave heightAir tempDewpointWater temp
2017-Dec-01 00:15N 01°16' E 104°09'2 7.1
2017-Dec-01 00:00N 01°16' E 104°08'4 6.9
2017-Nov-30 23:27N 01°15' E 104°04'3 6.8
2017-Nov-30 22:59N 01°15' E 104°01'3 6.5
2017-Nov-30 22:29N 01°14' E 103°57'2 4.9
2017-Nov-30 21:59N 01°15' E 103°55'1 1.4
2017-Nov-30 21:26N 01°15' E 103°54'0 0.0
2017-Nov-30 20:56N 01°15' E 103°54'0 0.1
2017-Nov-30 20:14N 01°15' E 103°55'0 0.2
2017-Nov-30 19:50N 01°15' E 103°55'0 0.2
2017-Nov-30 19:26N 01°15' E 103°55'0 0.1
2017-Nov-30 18:56N 01°15' E 103°55'0 0.0
2017-Nov-30 18:29N 01°15' E 103°55'0 0.0
2017-Nov-30 17:56N 01°15' E 103°55'0 0.0
2017-Nov-30 17:29N 01°15' E 103°55'0 0.0
2017-Nov-30 16:59N 01°15' E 103°55'0 0.0
2017-Nov-30 16:26N 01°15' E 103°55'0 0.1
2017-Nov-30 15:58N 01°15' E 103°55'0 0.0
2017-Nov-30 15:25N 01°15' E 103°55'0 0.0
2017-Nov-30 14:37N 01°15' E 103°55'0 0.0
2017-Nov-30 14:07N 01°15' E 103°55'0 0.0
2017-Nov-30 13:58N 01°15' E 103°55'0 0.0
2017-Nov-30 13:25N 01°15' E 103°55'0 0.0
2017-Nov-30 12:58N 01°15' E 103°55'0 0.0
2017-Nov-30 12:28N 01°15' E 103°55'0 0.0
2017-Nov-30 11:49N 01°15' E 103°55'0 0.0
2017-Nov-30 11:25N 01°15' E 103°55'0 0.1
2017-Nov-30 10:55N 01°15' E 103°55'0 0.0
2017-Nov-30 10:25N 01°15' E 103°55'0 0.0
2017-Nov-30 09:55N 01°15' E 103°55'0 0.1
2017-Nov-30 09:22N 01°15' E 103°55'0 0.1
2017-Nov-30 08:55N 01°15' E 103°55'0 0.1
2017-Nov-30 08:25N 01°15' E 103°55'0 0.1
2017-Nov-30 07:58N 01°15' E 103°55'0 0.0
2017-Nov-30 07:28N 01°15' E 103°55'0 0.0
2017-Nov-30 06:58N 01°15' E 103°55'0 0.0
2017-Nov-30 06:25N 01°15' E 103°55'0 0.0
2017-Nov-30 05:37N 01°15' E 103°55'0 0.1
2017-Nov-30 05:28N 01°15' E 103°55'0 0.0
2017-Nov-30 04:55N 01°15' E 103°55'0 0.0
2017-Nov-30 04:28N 01°15' E 103°55'0 0.0
2017-Nov-30 03:58N 01°15' E 103°55'0 0.0
2017-Nov-30 03:19N 01°15' E 103°55'0 0.1
2017-Nov-30 02:55N 01°15' E 103°55'0 0.0
2017-Nov-30 02:22N 01°15' E 103°55'0 0.0
2017-Nov-30 01:52N 01°15' E 103°55'0 0.0
2017-Nov-30 01:25N 01°15' E 103°55'0 0.1
2017-Nov-30 00:55N 01°15' E 103°55'0 0.1
2017-Nov-30 00:19N 01°15' E 103°55'0 0.1
2017-Nov-29 23:58N 01°15' E 103°55'0 0.1
2017-Nov-29 23:19N 01°15' E 103°55'0 0.2
2017-Nov-29 22:55N 01°15' E 103°55'0 0.0
2017-Nov-29 22:25N 01°15' E 103°55'0 0.0
2017-Nov-29 21:58N 01°15' E 103°55'0 0.0
2017-Nov-29 21:25N 01°15' E 103°55'0 0.0
2017-Nov-29 20:55N 01°15' E 103°55'0 0.1
2017-Nov-29 20:28N 01°15' E 103°55'0 0.0
2017-Nov-29 19:55N 01°15' E 103°55'0 0.1
2017-Nov-29 19:25N 01°15' E 103°55'0 0.0
2017-Nov-29 18:55N 01°15' E 103°55'0 0.1
2017-Nov-29 18:25N 01°15' E 103°55'0 0.0
2017-Nov-29 17:49N 01°15' E 103°55'0 0.0
2017-Nov-29 17:28N 01°15' E 103°55'0 0.0
2017-Nov-29 16:40N 01°15' E 103°55'0 0.3
2017-Nov-29 16:28N 01°15' E 103°55'0 0.0
2017-Nov-29 15:55N 01°15' E 103°55'0 0.0
2017-Nov-29 15:25N 01°15' E 103°55'0 0.0
2017-Nov-29 14:55N 01°15' E 103°55'0 0.1
2017-Nov-29 14:25N 01°15' E 103°55'0 0.0
2017-Nov-29 13:55N 01°15' E 103°55'0 0.0
2017-Nov-29 13:25N 01°15' E 103°55'0 0.0
2017-Nov-29 12:55N 01°15' E 103°55'0 0.0
2017-Nov-29 12:27N 01°15' E 103°55'0 0.0
2017-Nov-29 12:00N 01°15' E 103°55'0 0.0
2017-Nov-29 11:31N 01°15' E 103°55'0 0.0
2017-Nov-29 11:00N 01°15' E 103°55'0 0.0
2017-Nov-29 10:30N 01°15' E 103°55'0 0.0
2017-Nov-29 10:00N 01°15' E 103°55'0 0.0
2017-Nov-29 09:18N 01°15' E 103°55'0 0.0
2017-Nov-29 09:00N 01°15' E 103°55'0 0.0
2017-Nov-29 08:27N 01°15' E 103°55'0 0.0
2017-Nov-29 08:00N 01°15' E 103°55'0 0.1
2017-Nov-29 07:27N 01°15' E 103°55'0 0.1
2017-Nov-29 06:54N 01°15' E 103°55'0 0.0
2017-Nov-29 06:27N 01°15' E 103°55'0 0.1
2017-Nov-29 05:57N 01°15' E 103°55'0 0.2
2017-Nov-29 05:30N 01°15' E 103°55'0 0.1
2017-Nov-29 04:57N 01°15' E 103°55'0 0.1
2017-Nov-29 04:30N 01°15' E 103°55'0 0.0
2017-Nov-29 03:51N 01°15' E 103°55'0 0.0
2017-Nov-29 03:18N 01°15' E 103°55'0 0.0
2017-Nov-29 03:00N 01°15' E 103°55'0 0.0
2017-Nov-29 02:30N 01°15' E 103°55'0 0.2
2017-Nov-29 02:00N 01°15' E 103°55'0 0.1
2017-Nov-29 01:03N 01°15' E 103°55'0 0.0
2017-Nov-29 01:00N 01°15' E 103°55'0 0.1
2017-Nov-29 00:24N 01°15' E 103°54'0 0.0
2017-Nov-29 00:00N 01°15' E 103°54'0 0.0
2017-Nov-28 23:30N 01°15' E 103°54'0 0.0
2017-Nov-28 23:00N 01°15' E 103°54'0 0.0
2017-Nov-28 22:30N 01°15' E 103°54'0 0.0
2017-Nov-28 22:00N 01°15' E 103°54'0 0.0
2017-Nov-28 21:30N 01°15' E 103°54'0 0.0
2017-Nov-28 20:52N 01°15' E 103°54'0 0.0
2017-Nov-28 20:28N 01°15' E 103°54'0 0.1
2017-Nov-28 19:58N 01°15' E 103°55'0 0.1
2017-Nov-28 19:28N 01°15' E 103°55'0 0.1
2017-Nov-28 18:55N 01°15' E 103°55'0 0.1
2017-Nov-28 18:25N 01°15' E 103°55'0 0.0
2017-Nov-28 17:58N 01°15' E 103°55'0 0.0
2017-Nov-28 17:28N 01°15' E 103°55'0 0.1
2017-Nov-28 16:55N 01°15' E 103°55'0 0.0
2017-Nov-28 16:25N 01°15' E 103°55'0 0.0
2017-Nov-28 15:55N 01°15' E 103°55'0 0.0
2017-Nov-28 14:58N 01°15' E 103°55'0 0.0
2017-Nov-28 14:16N 01°15' E 103°55'0 0.0
2017-Nov-28 13:55N 01°15' E 103°55'0 0.0
2017-Nov-28 13:25N 01°15' E 103°55'0 0.1
2017-Nov-28 12:55N 01°15' E 103°55'0 0.0
2017-Nov-28 12:22N 01°15' E 103°55'0 0.1
2017-Nov-28 11:55N 01°15' E 103°55'0 0.2
2017-Nov-28 11:28N 01°15' E 103°55'0 0.1
2017-Nov-28 10:59N 01°15' E 103°55'0 0.2
2017-Nov-28 10:16N 01°15' E 103°55'0 0.2
2017-Nov-28 09:55N 01°15' E 103°55'0 0.1
2017-Nov-28 09:28N 01°15' E 103°54'0 0.0
2017-Nov-28 08:44N 01°15' E 103°54'0 0.0
2017-Nov-28 08:28N 01°15' E 103°54'0 0.0
2017-Nov-28 07:58N 01°15' E 103°54'0 0.1
2017-Nov-28 07:28N 01°15' E 103°54'0 0.0
2017-Nov-28 06:10N 01°15' E 103°54'0 0.1
2017-Nov-28 05:55N 01°15' E 103°54'0 0.0
2017-Nov-28 05:10N 01°15' E 103°54'0 0.1
2017-Nov-28 04:31N 01°15' E 103°54'0 0.1
2017-Nov-28 03:21N 01°15' E 103°54'0 0.0
2017-Nov-28 03:00N 01°15' E 103°54'0 0.0
2017-Nov-28 00:54N 01°15' E 103°54'0 0.0
2017-Nov-28 00:24N 01°15' E 103°54'0 0.0
2017-Nov-27 23:54N 01°15' E 103°54'0 0.0
2017-Nov-27 23:15N 01°15' E 103°54'0 0.0
2017-Nov-27 22:01N 01°15' E 103°54'0 0.0
2017-Nov-27 21:51N 01°15' E 103°54'0 0.0
2017-Nov-27 21:18N 01°15' E 103°54'0 0.0
2017-Nov-27 19:54N 01°15' E 103°54'0 0.0
2017-Nov-27 19:30N 01°15' E 103°54'0 0.1
2017-Nov-27 18:51N 01°15' E 103°55'0 0.0
2017-Nov-27 18:30N 01°15' E 103°55'0 0.1
2017-Nov-27 18:00N 01°15' E 103°55'0 0.0
2017-Nov-27 17:24N 01°15' E 103°55'0 0.0
2017-Nov-27 16:57N 01°15' E 103°55'0 0.0
2017-Nov-27 16:30N 01°15' E 103°55'0 0.0
2017-Nov-27 16:00N 01°15' E 103°55'0 0.0
2017-Nov-27 15:24N 01°15' E 103°55'0 0.0
2017-Nov-27 14:48N 01°15' E 103°55'0 0.0
2017-Nov-27 14:30N 01°15' E 103°55'0 0.0
2017-Nov-27 13:54N 01°15' E 103°55'0 0.0
2017-Nov-27 13:24N 01°15' E 103°55'0 0.0
2017-Nov-27 13:00N 01°15' E 103°55'0 0.0
2017-Nov-27 12:30N 01°15' E 103°55'0 0.0
2017-Nov-27 12:00N 01°15' E 103°55'0 0.0
2017-Nov-27 11:30N 01°15' E 103°55'0 0.0
2017-Nov-27 11:00N 01°15' E 103°55'0 0.0
2017-Nov-27 10:24N 01°15' E 103°55'0 0.1
2017-Nov-27 09:57N 01°15' E 103°55'0 0.1
2017-Nov-27 09:30N 01°15' E 103°55'0 0.1
2017-Nov-27 09:00N 01°15' E 103°54'0 0.0
2017-Nov-27 08:24N 01°15' E 103°54'0 0.0
2017-Nov-27 07:52N 01°15' E 103°54'0 0.2
2017-Nov-27 07:28N 01°15' E 103°54'0 0.0
2017-Nov-27 05:36N 01°15' E 103°54'0 0.0
2017-Nov-27 03:30N 01°15' E 103°54'0 0.0
2017-Nov-27 01:33N 01°15' E 103°54'0 0.1
2017-Nov-27 01:27N 01°15' E 103°54'0 0.0
2017-Nov-27 00:51N 01°15' E 103°54'0 0.0
2017-Nov-26 23:50N 01°15' E 103°54'0 0.0
2017-Nov-26 23:26N 01°15' E 103°54'0 0.0
2017-Nov-26 20:59N 01°15' E 103°54'0 0.0
2017-Nov-26 20:29N 01°15' E 103°54'0 0.1
2017-Nov-26 19:59N 01°15' E 103°55'0 0.0
2017-Nov-26 19:23N 01°15' E 103°55'0 0.2
2017-Nov-26 18:59N 01°15' E 103°55'0 0.0
2017-Nov-26 18:29N 01°15' E 103°55'0 0.1
2017-Nov-26 17:59N 01°15' E 103°55'0 0.0
2017-Nov-26 17:23N 01°15' E 103°55'0 0.2
2017-Nov-26 16:59N 01°15' E 103°55'0 0.1
2017-Nov-26 16:29N 01°15' E 103°55'0 0.0
2017-Nov-26 15:53N 01°15' E 103°55'0 0.0
2017-Nov-26 15:29N 01°15' E 103°55'0 0.1
2017-Nov-26 14:56N 01°15' E 103°55'0 0.1
2017-Nov-26 14:20N 01°15' E 103°55'0 0.2
2017-Nov-26 13:56N 01°15' E 103°55'0 0.0
2017-Nov-26 13:26N 01°15' E 103°55'0 0.0
2017-Nov-26 12:59N 01°15' E 103°55'0 0.1
2017-Nov-26 12:29N 01°15' E 103°55'0 0.0
2017-Nov-26 11:59N 01°15' E 103°55'0 0.0
2017-Nov-26 11:24N 01°15' E 103°55'0 0.1
2017-Nov-26 10:53N 01°15' E 103°55'0 0.1
2017-Nov-26 10:29N 01°15' E 103°55'0 0.0
2017-Nov-26 09:59N 01°15' E 103°55'0 0.0
2017-Nov-26 09:29N 01°15' E 103°55'0 0.2
2017-Nov-26 08:56N 01°15' E 103°55'0 0.3
2017-Nov-26 08:29N 01°15' E 103°54'0 0.0
2017-Nov-26 03:59N 01°15' E 103°54'0 0.0
2017-Nov-26 03:29N 01°15' E 103°54'0 0.0
2017-Nov-26 02:47N 01°15' E 103°54'0 0.0
2017-Nov-26 02:05N 01°15' E 103°54'0 0.0
2017-Nov-26 01:35N 01°15' E 103°54'0 0.0
2017-Nov-26 01:17N 01°15' E 103°54'0 0.0
2017-Nov-26 00:53N 01°15' E 103°54'0 0.0
2017-Nov-26 00:29N 01°15' E 103°54'0 0.0
2017-Nov-25 23:51N 01°15' E 103°54'0 0.0
2017-Nov-25 23:17N 01°15' E 103°54'0 0.0
2017-Nov-25 22:59N 01°15' E 103°54'0 0.0
2017-Nov-25 22:20N 01°15' E 103°54'0 0.0
2017-Nov-25 21:47N 01°15' E 103°54'0 0.0
2017-Nov-25 21:29N 01°15' E 103°54'0 0.1
2017-Nov-25 20:58N 01°15' E 103°54'0 0.0
2017-Nov-25 20:28N 01°15' E 103°54'0 0.0
2017-Nov-25 19:58N 01°15' E 103°54'0 0.1
2017-Nov-25 19:28N 01°15' E 103°55'0 0.1
2017-Nov-25 18:52N 01°15' E 103°54'0 0.1
2017-Nov-25 18:22N 01°15' E 103°55'0 0.0
2017-Nov-25 17:49N 01°15' E 103°55'0 0.2
2017-Nov-25 17:28N 01°15' E 103°55'0 0.1
2017-Nov-25 16:52N 01°15' E 103°55'0 0.1
2017-Nov-25 16:29N 01°15' E 103°55'0 0.1
2017-Nov-25 15:58N 01°15' E 103°55'0 0.0
2017-Nov-25 15:28N 01°15' E 103°55'0 0.0
2017-Nov-25 14:52N 01°15' E 103°55'0 0.0
2017-Nov-25 14:28N 01°15' E 103°55'0 0.1
2017-Nov-25 13:58N 01°15' E 103°55'0 0.1
2017-Nov-25 13:28N 01°15' E 103°55'0 0.0
2017-Nov-25 12:58N 01°15' E 103°55'0 0.0
2017-Nov-25 12:28N 01°15' E 103°55'0 0.1
2017-Nov-25 11:58N 01°15' E 103°55'0 0.1
2017-Nov-25 11:28N 01°15' E 103°55'0 0.1
2017-Nov-25 10:58N 01°15' E 103°55'0 0.0
2017-Nov-25 10:28N 01°15' E 103°55'0 0.1
2017-Nov-25 09:58N 01°15' E 103°55'0 0.1
2017-Nov-25 09:28N 01°15' E 103°55'0 0.0
2017-Nov-25 08:49N 01°15' E 103°55'0 0.0
2017-Nov-25 08:28N 01°15' E 103°55'0 0.0
2017-Nov-25 07:59N 01°15' E 103°55'0 0.4
2017-Nov-25 07:28N 01°15' E 103°54'0 0.1
2017-Nov-25 06:43N 01°15' E 103°54'0 0.0
2017-Nov-25 06:16N 01°15' E 103°54'0 0.0
2017-Nov-25 05:58N 01°15' E 103°54'0 0.0
2017-Nov-25 04:52N 01°15' E 103°54'0 0.0
2017-Nov-25 04:28N 01°15' E 103°54'0 0.0
2017-Nov-25 03:58N 01°15' E 103°54'0 0.0
2017-Nov-25 03:10N 01°15' E 103°54'0 0.0
2017-Nov-25 02:58N 01°15' E 103°54'0 0.0
2017-Nov-25 00:58N 01°15' E 103°54'0 0.0
2017-Nov-25 00:01N 01°15' E 103°54'0 0.0
2017-Nov-24 23:40N 01°15' E 103°54'0 0.0
2017-Nov-24 23:28N 01°15' E 103°54'0 0.0
2017-Nov-24 22:04N 01°15' E 103°54'0 0.0
2017-Nov-24 21:46N 01°15' E 103°54'0 0.0
2017-Nov-24 21:28N 01°15' E 103°54'0 0.0
2017-Nov-24 20:52N 01°15' E 103°54'0 0.0
2017-Nov-24 20:28N 01°15' E 103°54'0 0.0
2017-Nov-24 19:58N 01°15' E 103°54'0 0.1
2017-Nov-24 19:28N 01°15' E 103°54'0 0.0
2017-Nov-24 18:58N 01°15' E 103°54'0 0.0
2017-Nov-24 18:19N 01°15' E 103°54'0 0.0
2017-Nov-24 18:01N 01°15' E 103°54'0 0.0
2017-Nov-24 17:31N 01°15' E 103°54'0 0.1
2017-Nov-24 16:58N 01°15' E 103°55'0 0.1
2017-Nov-24 16:30N 01°15' E 103°54'0 0.1
2017-Nov-24 16:00N 01°15' E 103°55'0 0.1
2017-Nov-24 15:21N 01°15' E 103°55'0 0.2
2017-Nov-24 14:45N 01°15' E 103°55'0 0.1
2017-Nov-24 14:30N 01°15' E 103°55'0 0.0
2017-Nov-24 13:57N 01°15' E 103°55'0 0.0
2017-Nov-24 13:27N 01°15' E 103°55'0 0.0
2017-Nov-24 12:57N 01°15' E 103°55'0 0.0
2017-Nov-24 12:27N 01°15' E 103°55'0 0.0
2017-Nov-24 11:57N 01°15' E 103°55'0 0.0
2017-Nov-24 11:30N 01°15' E 103°55'0 0.0
2017-Nov-24 11:00N 01°15' E 103°55'0 0.0
2017-Nov-24 10:18N 01°15' E 103°55'0 0.0
2017-Nov-24 09:57N 01°15' E 103°55'0 0.0
2017-Nov-24 09:27N 01°15' E 103°55'0 0.2
2017-Nov-24 09:00N 01°15' E 103°55'0 0.1
2017-Nov-24 08:24N 01°15' E 103°55'0 0.1
2017-Nov-24 07:57N 01°15' E 103°55'0 0.1
2017-Nov-24 07:27N 01°15' E 103°55'0 0.1
2017-Nov-24 06:51N 01°15' E 103°55'0 0.1
2017-Nov-24 06:27N 01°15' E 103°54'0 0.0
2017-Nov-24 05:21N 01°15' E 103°54'0 0.1
2017-Nov-24 04:57N 01°15' E 103°54'0 0.0
2017-Nov-24 04:27N 01°15' E 103°54'0 0.0
2017-Nov-24 03:48N 01°15' E 103°54'0 0.0
2017-Nov-24 03:27N 01°15' E 103°54'0 0.0
2017-Nov-24 02:51N 01°15' E 103°54'0 0.1
2017-Nov-24 02:21N 01°15' E 103°54'0 0.0
2017-Nov-24 01:54N 01°15' E 103°54'0 0.1
2017-Nov-24 01:21N 01°15' E 103°54'0 0.1
2017-Nov-24 00:48N 01°15' E 103°54'0 0.2
2017-Nov-24 00:27N 01°15' E 103°54'0 0.0
2017-Nov-23 23:54N 01°15' E 103°54'0 0.0
2017-Nov-23 23:27N 01°15' E 103°54'0 0.1
2017-Nov-23 23:00N 01°15' E 103°54'0 0.0
2017-Nov-23 22:30N 01°15' E 103°54'0 0.0
2017-Nov-23 21:57N 01°15' E 103°54'0 0.0
2017-Nov-23 21:27N 01°15' E 103°54'0 0.0
2017-Nov-23 20:57N 01°15' E 103°54'0 0.1
2017-Nov-23 20:27N 01°15' E 103°55'0 0.0
2017-Nov-23 19:57N 01°15' E 103°55'0 0.0
2017-Nov-23 19:24N 01°15' E 103°55'0 0.0
2017-Nov-23 18:57N 01°15' E 103°55'0 0.0
2017-Nov-23 18:30N 01°15' E 103°55'0 0.0
2017-Nov-23 17:51N 01°15' E 103°55'0 0.0
2017-Nov-23 17:27N 01°15' E 103°55'0 0.0
2017-Nov-23 17:00N 01°15' E 103°55'0 0.1
2017-Nov-23 16:30N 01°15' E 103°54'0 0.2
2017-Nov-23 15:48N 01°15' E 103°55'0 0.1
2017-Nov-23 15:21N 01°15' E 103°55'0 0.1
2017-Nov-23 14:54N 01°15' E 103°55'0 0.1
2017-Nov-23 14:24N 01°15' E 103°55'0 0.0
2017-Nov-23 14:00N 01°15' E 103°55'0 0.0
2017-Nov-23 13:29N 01°15' E 103°55'0 0.0
2017-Nov-23 12:41N 01°15' E 103°55'0 0.1
2017-Nov-23 12:23N 01°15' E 103°55'0 0.0
2017-Nov-23 11:50N 01°15' E 103°55'0 0.0
2017-Nov-23 11:26N 01°15' E 103°55'0 0.0
2017-Nov-23 10:56N 01°15' E 103°55'0 0.0
2017-Nov-23 10:26N 01°15' E 103°55'0 0.0
2017-Nov-23 09:56N 01°15' E 103°55'0 0.0
2017-Nov-23 09:29N 01°15' E 103°55'0 0.1
2017-Nov-23 08:59N 01°15' E 103°55'0 0.1
2017-Nov-23 08:29N 01°15' E 103°55'0 0.0
2017-Nov-23 07:50N 01°15' E 103°55'0 0.0
2017-Nov-23 07:26N 01°15' E 103°55'0 0.3
2017-Nov-23 06:59N 01°15' E 103°55'0 0.4
2017-Nov-23 06:26N 01°15' E 103°54'0 0.1
2017-Nov-23 05:50N 01°15' E 103°54'0 0.2
2017-Nov-23 05:26N 01°15' E 103°54'0 0.0
2017-Nov-23 04:56N 01°15' E 103°54'0 0.0
2017-Nov-23 03:02N 01°15' E 103°54'0 0.0
2017-Nov-23 02:56N 01°15' E 103°54'0 0.0
2017-Nov-23 01:26N 01°15' E 103°54'0 0.0
2017-Nov-23 00:50N 01°15' E 103°54'0 0.0
2017-Nov-23 00:20N 01°15' E 103°54'0 0.0
2017-Nov-22 23:23N 01°15' E 103°54'0 0.0
2017-Nov-22 22:44N 01°15' E 103°54'0 0.0
2017-Nov-22 22:14N 01°15' E 103°54'0 0.0
2017-Nov-22 21:53N 01°15' E 103°54'0 0.0
2017-Nov-22 21:26N 01°15' E 103°54'0 0.1
2017-Nov-22 20:50N 01°15' E 103°54'0 0.0
2017-Nov-22 20:29N 01°15' E 103°54'0 0.1
2017-Nov-22 19:56N 01°15' E 103°55'0 0.1
2017-Nov-22 19:20N 01°15' E 103°54'  

Dump ship's entire track history